As Floriana — CQFU — position and weather

sailwx.info

Track history (hours):
 
Tides and Currents Weather Stations Pressure Air Temp Water Temp Dewpoint Dewpoint Depression Visibility Wind Speed Wind Dir Waves Ship Positions

As Floriana

Last reported at 2018-Jun-19 17:42 UTC. Time now 2018-Jun-21 10:00 UTC.
Position N 32°28' E 033°25'.

Length 166 m; draft 7.8 m.

Type: Cargo ship. MMSI: 255805622.

Date/timePositionNaut miles runAvg speedWind from/ knotsBaromVisibWave heightAir tempDewpointWater temp
2018-Jun-19 17:42N 32°28' E 033°25'71 3.5
2018-Jun-18 21:15N 32°56' E 034°44'311.7
2018-Jun-18 21:00N 32°55' E 034°47'611.8
2018-Jun-18 20:28N 32°54' E 034°54'6 0.4
2018-Jun-18 05:39N 32°51' E 035°01'2 6.7
2018-Jun-18 05:24N 32°52' E 034°60'1 0.1
2018-Jun-17 21:14N 32°52' E 035°00'0 0.0
2018-Jun-17 18:20N 32°52' E 035°00'0 0.0
2018-Jun-17 17:56N 32°52' E 035°00'0 0.0
2018-Jun-17 17:26N 32°52' E 035°00'0 0.0
2018-Jun-17 04:10N 32°52' E 035°01'1 2.4
2018-Jun-17 03:57N 32°52' E 035°00'4 7.6
2018-Jun-17 03:25N 32°53' E 034°55'410.7
2018-Jun-17 03:00N 32°55' E 034°50'714.1
2018-Jun-17 02:30N 32°56' E 034°42'1010.3
2018-Jun-17 01:31N 32°57' E 034°30'212.7
2018-Jun-17 01:22N 32°58' E 034°28'812.8
2018-Jun-17 00:46N 32°59' E 034°19'512.9
2018-Jun-17 00:24N 32°60' E 034°13'512.9
2018-Jun-17 00:00N 33°00' E 034°07'712.8
2018-Jun-16 23:29N 33°00' E 033°59'813.0
2018-Jun-16 22:52N 32°56' E 033°51'6712.3
2018-Jun-16 17:23N 32°34' E 032°35'5 7.9
2018-Jun-16 16:48N 32°32' E 032°30'0 0.7
2018-Jun-16 16:26N 32°33' E 032°30'0 0.7
2018-Jun-16 15:48N 32°33' E 032°30'1 0.8
2018-Jun-16 15:02N 32°34' E 032°30'0 0.7
2018-Jun-16 15:00N 32°34' E 032°30'1 0.9
2018-Jun-16 13:32N 32°35' E 032°29'0 0.5
2018-Jun-16 13:24N 32°35' E 032°29'2 5.7
2018-Jun-16 13:00N 32°33' E 032°30'3 5.8
2018-Jun-16 12:30N 32°36' E 032°29'1 0.6
2018-Jun-16 10:07N 32°37' E 032°29'2 0.3
2018-Jun-16 04:38N 32°35' E 032°29'0 1.5
2018-Jun-16 04:20N 32°35' E 032°29'2 1.6
2018-Jun-16 03:18N 32°33' E 032°30'0 1.6
2018-Jun-16 03:00N 32°33' E 032°31'1 1.7
2018-Jun-16 02:31N 32°32' E 032°31'1 1.9
2018-Jun-16 02:00N 32°31' E 032°32'1 1.9
2018-Jun-16 01:30N 32°31' E 032°33'1 1.9
2018-Jun-16 01:00N 32°30' E 032°34'1 1.9
2018-Jun-16 00:31N 32°29' E 032°34'1 1.9
2018-Jun-16 00:00N 32°29' E 032°35'1 1.9
2018-Jun-15 23:30N 32°28' E 032°36'1 1.9
2018-Jun-15 23:01N 32°28' E 032°37'1 1.8
2018-Jun-15 22:31N 32°27' E 032°38'1 1.6
2018-Jun-15 22:01N 32°26' E 032°39'1 1.3
2018-Jun-15 21:31N 32°26' E 032°39'1 1.2
2018-Jun-15 21:00N 32°26' E 032°40'1 1.2
2018-Jun-15 20:30N 32°26' E 032°40'1 1.1
2018-Jun-15 19:35N 32°25' E 032°42'0 1.0
2018-Jun-15 19:30N 32°25' E 032°42'0 0.9
2018-Jun-15 19:00N 32°25' E 032°42'2 0.7
2018-Jun-15 16:42N 32°26' E 032°44'0 0.7
2018-Jun-15 16:14N 32°26' E 032°44'0 0.8
2018-Jun-15 16:00N 32°26' E 032°44'1 1.0
2018-Jun-15 15:27N 32°27' E 032°45'2 3.9
2018-Jun-15 15:00N 32°25' E 032°45'1613.6
2018-Jun-15 13:49N 32°09' E 032°46'713.6
2018-Jun-15 13:18N 32°02' E 032°46'413.4
2018-Jun-15 12:59N 31°58' E 032°47'613.4
2018-Jun-15 12:30N 31°51' E 032°47'612.4
2018-Jun-15 12:00N 31°46' E 032°43'713.9
2018-Jun-15 11:30N 31°42' E 032°37'1013.9
2018-Jun-15 10:48N 31°37' E 032°27'413.5
2018-Jun-15 10:29N 31°34' E 032°23'613.2
2018-Jun-15 10:01N 31°28' E 032°26'5 0.4
2018-Jun-14 22:17N 31°24' E 032°25'2 7.4
2018-Jun-14 22:00N 31°25' E 032°27'0 0.0
2018-Jun-14 18:26N 31°25' E 032°27'4 4.1
2018-Jun-14 17:35N 31°28' E 032°24'110.9
2018-Jun-14 17:30N 31°28' E 032°24'1013.4
2018-Jun-14 16:44N 31°32' E 032°12'313.6
2018-Jun-14 16:30N 31°34' E 032°10'710.5
2018-Jun-14 15:53N 31°39' E 032°04'11 9.8
2018-Jun-14 14:48N 31°46' E 031°55'411.7
2018-Jun-14 14:27N 31°49' E 031°51'611.7
2018-Jun-14 13:56N 31°52' E 031°46'2711.5
2018-Jun-14 11:34N 32°13' E 031°26'411 9.9
2018-Jun-12 18:00N 37°22' E 025°55'611.4
2018-Jun-12 17:30N 37°26' E 025°51'611.7
2018-Jun-12 17:01N 37°32' E 025°48'711.6
2018-Jun-12 16:24N 37°39' E 025°48'7 0.2
2018-Jun-11 05:41N 37°46' E 025°48'1316.3
2018-Jun-11 04:52N 37°32' E 025°50'716.0
2018-Jun-11 04:27N 37°26' E 025°52'46117.1
2018-Jun-10 01:24N 31°41' E 032°04'816.9
2018-Jun-10 00:55N 31°35' E 032°11'816.7
2018-Jun-10 00:27N 31°30' E 032°18'716.5
2018-Jun-10 00:00N 31°26' E 032°25'714.2
2018-Jun-09 23:30N 31°20' E 032°23'611.1
2018-Jun-09 22:57N 31°14' E 032°21'  
Track history (hours):
 
Tides and Currents Weather Stations Pressure Air Temp Water Temp Dewpoint Dewpoint Depression Visibility Wind Speed Wind Dir Waves Ship Positions

As Floriana

Last reported at 2018-Jun-19 17:42 UTC. Time now 2018-Jun-21 10:00 UTC.
Position N 32°28' E 033°25'.

Length 166 m; draft 7.8 m.

Type: Cargo ship. MMSI: 255805622.

Date/timePositionNaut miles runAvg speedWind from/ knotsBaromVisibWave heightAir tempDewpointWater temp
2018-Jun-19 17:42N 32°28' E 033°25'71 3.5
2018-Jun-18 21:15N 32°56' E 034°44'311.7
2018-Jun-18 21:00N 32°55' E 034°47'611.8
2018-Jun-18 20:28N 32°54' E 034°54'6 0.4
2018-Jun-18 05:39N 32°51' E 035°01'2 6.7
2018-Jun-18 05:24N 32°52' E 034°60'1 0.1
2018-Jun-17 21:14N 32°52' E 035°00'0 0.0
2018-Jun-17 18:20N 32°52' E 035°00'0 0.0
2018-Jun-17 17:56N 32°52' E 035°00'0 0.0
2018-Jun-17 17:26N 32°52' E 035°00'0 0.0
2018-Jun-17 04:10N 32°52' E 035°01'1 2.4
2018-Jun-17 03:57N 32°52' E 035°00'4 7.6
2018-Jun-17 03:25N 32°53' E 034°55'410.7
2018-Jun-17 03:00N 32°55' E 034°50'714.1
2018-Jun-17 02:30N 32°56' E 034°42'1010.3
2018-Jun-17 01:31N 32°57' E 034°30'212.7
2018-Jun-17 01:22N 32°58' E 034°28'812.8
2018-Jun-17 00:46N 32°59' E 034°19'512.9
2018-Jun-17 00:24N 32°60' E 034°13'512.9
2018-Jun-17 00:00N 33°00' E 034°07'712.8
2018-Jun-16 23:29N 33°00' E 033°59'813.0
2018-Jun-16 22:52N 32°56' E 033°51'6712.3
2018-Jun-16 17:23N 32°34' E 032°35'5 7.9
2018-Jun-16 16:48N 32°32' E 032°30'0 0.7
2018-Jun-16 16:26N 32°33' E 032°30'0 0.7
2018-Jun-16 15:48N 32°33' E 032°30'1 0.8
2018-Jun-16 15:02N 32°34' E 032°30'0 0.7
2018-Jun-16 15:00N 32°34' E 032°30'1 0.9
2018-Jun-16 13:32N 32°35' E 032°29'0 0.5
2018-Jun-16 13:24N 32°35' E 032°29'2 5.7
2018-Jun-16 13:00N 32°33' E 032°30'3 5.8
2018-Jun-16 12:30N 32°36' E 032°29'1 0.6
2018-Jun-16 10:07N 32°37' E 032°29'2 0.3
2018-Jun-16 04:38N 32°35' E 032°29'0 1.5
2018-Jun-16 04:20N 32°35' E 032°29'2 1.6
2018-Jun-16 03:18N 32°33' E 032°30'0 1.6
2018-Jun-16 03:00N 32°33' E 032°31'1 1.7
2018-Jun-16 02:31N 32°32' E 032°31'1 1.9
2018-Jun-16 02:00N 32°31' E 032°32'1 1.9
2018-Jun-16 01:30N 32°31' E 032°33'1 1.9
2018-Jun-16 01:00N 32°30' E 032°34'1 1.9
2018-Jun-16 00:31N 32°29' E 032°34'1 1.9
2018-Jun-16 00:00N 32°29' E 032°35'1 1.9
2018-Jun-15 23:30N 32°28' E 032°36'1 1.9
2018-Jun-15 23:01N 32°28' E 032°37'1 1.8
2018-Jun-15 22:31N 32°27' E 032°38'1 1.6
2018-Jun-15 22:01N 32°26' E 032°39'1 1.3
2018-Jun-15 21:31N 32°26' E 032°39'1 1.2
2018-Jun-15 21:00N 32°26' E 032°40'1 1.2
2018-Jun-15 20:30N 32°26' E 032°40'1 1.1
2018-Jun-15 19:35N 32°25' E 032°42'0 1.0
2018-Jun-15 19:30N 32°25' E 032°42'0 0.9
2018-Jun-15 19:00N 32°25' E 032°42'2 0.7
2018-Jun-15 16:42N 32°26' E 032°44'0 0.7
2018-Jun-15 16:14N 32°26' E 032°44'0 0.8
2018-Jun-15 16:00N 32°26' E 032°44'1 1.0
2018-Jun-15 15:27N 32°27' E 032°45'2 3.9
2018-Jun-15 15:00N 32°25' E 032°45'1613.6
2018-Jun-15 13:49N 32°09' E 032°46'713.6
2018-Jun-15 13:18N 32°02' E 032°46'413.4
2018-Jun-15 12:59N 31°58' E 032°47'613.4
2018-Jun-15 12:30N 31°51' E 032°47'612.4
2018-Jun-15 12:00N 31°46' E 032°43'713.9
2018-Jun-15 11:30N 31°42' E 032°37'1013.9
2018-Jun-15 10:48N 31°37' E 032°27'413.5
2018-Jun-15 10:29N 31°34' E 032°23'613.2
2018-Jun-15 10:01N 31°28' E 032°26'5 0.4
2018-Jun-14 22:17N 31°24' E 032°25'2 7.4
2018-Jun-14 22:00N 31°25' E 032°27'0 0.0
2018-Jun-14 18:26N 31°25' E 032°27'4 4.1
2018-Jun-14 17:35N 31°28' E 032°24'110.9
2018-Jun-14 17:30N 31°28' E 032°24'1013.4
2018-Jun-14 16:44N 31°32' E 032°12'313.6
2018-Jun-14 16:30N 31°34' E 032°10'710.5
2018-Jun-14 15:53N 31°39' E 032°04'11 9.8
2018-Jun-14 14:48N 31°46' E 031°55'411.7
2018-Jun-14 14:27N 31°49' E 031°51'611.7
2018-Jun-14 13:56N 31°52' E 031°46'2711.5
2018-Jun-14 11:34N 32°13' E 031°26'411 9.9
2018-Jun-12 18:00N 37°22' E 025°55'611.4
2018-Jun-12 17:30N 37°26' E 025°51'611.7
2018-Jun-12 17:01N 37°32' E 025°48'711.6
2018-Jun-12 16:24N 37°39' E 025°48'7 0.2
2018-Jun-11 05:41N 37°46' E 025°48'1316.3
2018-Jun-11 04:52N 37°32' E 025°50'716.0
2018-Jun-11 04:27N 37°26' E 025°52'46117.1
2018-Jun-10 01:24N 31°41' E 032°04'816.9
2018-Jun-10 00:55N 31°35' E 032°11'816.7
2018-Jun-10 00:27N 31°30' E 032°18'716.5
2018-Jun-10 00:00N 31°26' E 032°25'714.2
2018-Jun-09 23:30N 31°20' E 032°23'611.1
2018-Jun-09 22:57N 31°14' E 032°21'  

Dump ship's entire track history